Terminal Aerodrome Forecast
Issued by NWS Tulsa, OK

Home | Current Version | Previous Version | Text Only | Print | Product List | Glossary On
Versions: 1 2 3 4 5 6 7 8 9 10 11 12 13 14
296
FTUS44 KTSA 240520
TAFTUL
TAF
KTUL 240520Z 2406/2506 16018G26KT P6SM SCT250
     FM241200 17018G26KT P6SM VCSH OVC050
     FM241600 17020G30KT P6SM OVC025
     FM241900 17019G26KT P6SM OVC100=

USA.gov is the U.S. government's official web portal to all federal, state and local government web resources and services.